METAR AND TAF INFORMATION
METAR FOR KIND
KIND 130854Z 28008KT 10SM CLR 06/03 A3007 RMK AO2 SLP182 T00610028 53012
KIND 130754Z 26008KT 10SM CLR 06/03 A3005 RMK AO2 SLP176 T00610028
KIND 130654Z 25010KT 10SM CLR 07/03 A3004 RMK AO2 SLP173 T00670033
KIND 130520Z 1306/1412 27007KT P6SM SKC
FM132100 25010KT P6SM FEW250
FM140100 18010KT P6SM SCT250

 AIRPORT MAP

 RUNWAY INFORMATION
Runway 05L Runway length 11200 ft Runway width 150 ft
Runway elevation 738 ft Runway displaced threshold 0 ft Runway heading 45
Runway 23R Runway length 11200 ft Runway width 150 ft
Runway elevation 783 ft Runway displaced threshold 0 ft Runway heading 225
Runway 05R Runway length 10000 ft Runway width 150 ft
Runway elevation 789 ft Runway displaced threshold 0 ft Runway heading 45
Runway 23L Runway length 10000 ft Runway width 150 ft
Runway elevation 788 ft Runway displaced threshold 0 ft Runway heading 225
Runway 14 Runway length 7605 ft Runway width 150 ft
Runway elevation 788 ft Runway displaced threshold 0 ft Runway heading 135
Runway 32 Runway length 7605 ft Runway width 150 ft
Runway elevation 781 ft Runway displaced threshold 0 ft Runway heading 315

 AIRPORT FREQUENCIES
Type APP Name APP Frequency 119.3 MHZ
Type ATIS Name ATIS Frequency 134.25 MHZ
Type CLD Name CLNC DEL Frequency 128.75 MHZ
Type DEP Name DEP Frequency 119.05 MHZ
Type GND Name GND Frequency 121.8 MHZ
Type RDO Name TERRE HAUT Frequency 122.55 MHZ
Type TWR Name INDY TWR Frequency 120.9 MHZ
Type UNIC Name UNICOM Frequency 122.95 MHZ

 AIRPORT NEAR NAVIGATION AIDS
Type NDB Name Colfa Frequency 232 KHZ

-